Time;durP1;ratioP1;P1;durP2;ratioP2;P2;SDS_P1;SDS_P2;PMS_P1;PMS_P2;Temp;Humidity;BMP_temperature;BMP_pressure;BME280_temperature;BME280_humidity;BME280_pressure;Samples;Min_cycle;Max_cycle;Signal;HPM_P1;HPM_P2
2022/06/29 00:00:21;;;;;;;6.40;3.00;;;17.40;54.50;;;;;;5070094;28;20048;-82
2022/06/29 00:02:47;;;;;;;5.65;3.03;;;17.40;54.60;;;;;;5073073;28;20413;-82
2022/06/29 00:05:16;;;;;;;3.88;2.60;;;17.30;54.50;;;;;;5062409;28;20020;-82
2022/06/29 00:07:43;;;;;;;5.18;2.97;;;17.30;54.90;;;;;;5060871;28;20031;-83
2022/06/29 00:10:10;;;;;;;4.10;3.25;;;17.30;54.90;;;;;;5055168;28;20013;-81
2022/06/29 00:12:36;;;;;;;4.53;3.08;;;17.30;54.90;;;;;;5073238;28;20036;-81
2022/06/29 00:15:02;;;;;;;5.85;2.75;;;17.20;55.60;;;;;;5073022;28;20012;-82
2022/06/29 00:17:32;;;;;;;8.23;3.30;;;17.30;55.10;;;;;;5073372;28;20076;-81
2022/06/29 00:20:00;;;;;;;7.25;2.65;;;17.20;55.00;;;;;;5076088;28;20013;-83
2022/06/29 00:22:28;;;;;;;8.05;3.70;;;17.30;55.10;;;;;;5060504;28;20054;-82
2022/06/29 00:24:54;;;;;;;5.03;3.17;;;17.20;55.40;;;;;;5079593;28;20032;-81
2022/06/29 00:27:20;;;;;;;6.32;2.55;;;17.20;55.40;;;;;;5055749;28;20285;-82
2022/06/29 00:29:46;;;;;;;6.93;3.30;;;17.10;55.60;;;;;;5073310;28;20707;-82
2022/06/29 00:32:12;;;;;;;6.03;3.50;;;17.20;55.50;;;;;;5073327;28;20020;-82
2022/06/29 00:34:38;;;;;;;6.95;3.60;;;17.10;55.60;;;;;;5072705;28;20027;-82
2022/06/29 00:37:04;;;;;;;7.80;3.42;;;17.10;55.60;;;;;;5072811;28;20111;-82
2022/06/29 00:39:31;;;;;;;8.73;3.75;;;17.10;55.90;;;;;;5072441;28;20012;-82
2022/06/29 00:41:58;;;;;;;6.53;3.50;;;17.00;55.90;;;;;;5054745;28;20021;-82
2022/06/29 00:44:24;;;;;;;5.90;3.47;;;17.00;55.90;;;;;;5073286;28;20028;-81
2022/06/29 00:46:53;;;;;;;7.35;3.50;;;16.90;55.90;;;;;;5072855;28;20786;-82
2022/06/29 00:49:20;;;;;;;4.95;3.10;;;17.00;56.10;;;;;;5054613;28;20355;-82
2022/06/29 00:51:48;;;;;;;6.35;3.35;;;17.00;55.80;;;;;;5072683;28;20032;-83
2022/06/29 00:54:23;;;;;;;5.65;3.50;;;17.00;55.80;;;;;;5069375;28;20052;-82
2022/06/29 00:56:52;;;;;;;7.35;3.47;;;17.00;55.90;;;;;;5068841;28;20027;-83
2022/06/29 00:59:25;;;;;;;7.13;3.55;;;16.90;56.00;;;;;;5054540;28;20023;-83
2022/06/29 01:01:51;;;;;;;5.68;3.20;;;16.90;56.00;;;;;;5045326;28;20016;-83
2022/06/29 01:04:17;;;;;;;4.57;2.88;;;16.90;56.10;;;;;;5072389;28;20504;-82
2022/06/29 01:06:43;;;;;;;10.98;3.63;;;16.90;56.10;;;;;;5072135;28;20033;-82
2022/06/29 01:09:09;;;;;;;15.35;3.22;;;16.90;56.30;;;;;;5072520;28;20079;-83
2022/06/29 01:11:35;;;;;;;8.10;3.42;;;16.90;56.40;;;;;;5072572;28;20043;-83
2022/06/29 01:14:01;;;;;;;10.80;3.03;;;16.80;56.40;;;;;;5054510;28;20021;-82
2022/06/29 01:16:28;;;;;;;6.22;3.42;;;16.80;56.70;;;;;;5072728;28;20033;-81
2022/06/29 01:18:53;;;;;;;6.33;3.60;;;16.90;56.70;;;;;;5072313;28;20020;-81
2022/06/29 01:21:21;;;;;;;6.53;2.80;;;16.90;56.80;;;;;;5072840;28;20034;-82
2022/06/29 01:23:47;;;;;;;6.68;2.92;;;16.90;57.00;;;;;;5073049;28;20021;-82
2022/06/29 01:26:13;;;;;;;5.97;2.83;;;16.90;56.80;;;;;;5053744;28;20550;-80
2022/06/29 01:28:44;;;;;;;6.90;3.50;;;16.90;56.90;;;;;;5072827;28;20028;-83
2022/06/29 01:31:19;;;;;;;3.70;2.55;;;16.90;56.90;;;;;;5059429;28;20553;-83
2022/06/29 01:33:47;;;;;;;9.93;3.00;;;16.90;56.90;;;;;;5073503;28;20039;-83
2022/06/29 01:36:14;;;;;;;5.47;3.17;;;16.90;57.00;;;;;;5078764;28;20027;-82
2022/06/29 01:38:41;;;;;;;;;;;16.90;57.00;;;;;;5087240;28;20016;-83
2022/06/29 01:41:10;;;;;;;4.53;2.67;;;16.90;56.60;;;;;;5075124;28;19961;-82
2022/06/29 01:43:36;;;;;;;6.18;3.33;;;16.80;57.00;;;;;;5073707;28;20082;-81
2022/06/29 01:46:02;;;;;;;10.65;3.08;;;16.90;57.10;;;;;;5051918;28;20040;-82
2022/06/29 01:48:28;;;;;;;4.68;3.05;;;16.90;57.40;;;;;;5076218;28;20064;-81
2022/06/29 01:50:54;;;;;;;9.15;3.58;;;17.00;57.40;;;;;;5056633;28;20027;-82
2022/06/29 01:53:20;;;;;;;4.43;2.85;;;17.00;57.30;;;;;;5074349;28;20020;-83
2022/06/29 01:55:46;;;;;;;4.47;3.13;;;17.10;57.10;;;;;;5054152;28;20466;-82
2022/06/29 01:58:13;;;;;;;5.03;2.83;;;17.10;57.20;;;;;;5054264;28;20023;-81
2022/06/29 02:00:39;;;;;;;5.63;2.78;;;17.10;56.90;;;;;;5053949;28;20037;-81
2022/06/29 02:03:05;;;;;;;6.70;2.70;;;17.20;56.70;;;;;;5071747;28;20029;-80
2022/06/29 02:05:31;;;;;;;7.82;2.42;;;17.20;56.50;;;;;;5071560;28;20115;-81
2022/06/29 02:07:57;;;;;;;4.38;2.90;;;17.20;56.50;;;;;;5072028;28;20029;-83
2022/06/29 02:10:23;;;;;;;8.48;3.40;;;17.20;56.40;;;;;;5059237;28;20017;-82
2022/06/29 02:12:49;;;;;;;8.82;2.70;;;17.10;56.50;;;;;;5071872;28;20311;-82
2022/06/29 02:15:15;;;;;;;4.28;2.97;;;17.20;56.60;;;;;;5072030;28;20021;-82
2022/06/29 02:17:41;;;;;;;6.07;3.40;;;17.20;56.70;;;;;;5072969;28;20391;-80
2022/06/29 02:20:07;;;;;;;5.97;3.28;;;17.20;56.90;;;;;;5074383;28;20077;-82
2022/06/29 02:22:34;;;;;;;6.03;2.80;;;17.30;56.20;;;;;;5077122;28;20464;-82
2022/06/29 02:24:59;;;;;;;6.57;2.97;;;17.30;56.20;;;;;;5059499;28;20074;-82
2022/06/29 02:27:25;;;;;;;4.82;3.10;;;17.30;56.20;;;;;;5076440;28;20365;-82
2022/06/29 02:29:51;;;;;;;7.28;2.72;;;17.30;56.10;;;;;;5074597;28;20024;-82
2022/06/29 02:35:01;;;;;;;7.40;2.65;;;17.40;56.10;;;;;;5072255;28;20040;-81
2022/06/29 02:37:27;;;;;;;4.05;2.88;;;17.30;56.10;;;;;;5076287;28;20025;-82
2022/06/29 02:39:53;;;;;;;3.80;2.72;;;17.30;56.00;;;;;;5078981;28;20027;-80
2022/06/29 02:42:19;;;;;;;7.00;3.20;;;17.30;56.10;;;;;;5077705;28;20025;-82
2022/06/29 02:44:45;;;;;;;9.40;3.40;;;17.30;56.30;;;;;;5076864;28;20017;-81
2022/06/29 02:47:12;;;;;;;8.40;3.15;;;17.40;56.10;;;;;;5075024;28;20032;-82
2022/06/29 02:49:38;;;;;;;4.95;3.17;;;17.50;56.10;;;;;;5075119;28;20012;-81
2022/06/29 02:52:04;;;;;;;6.15;2.67;;;17.50;55.80;;;;;;5075022;28;20542;-81
2022/06/29 02:54:30;;;;;;;9.48;2.72;;;17.60;55.20;;;;;;5074952;28;20082;-81
2022/06/29 02:56:56;;;;;;;6.65;3.10;;;17.60;55.10;;;;;;5081283;28;20024;-81
2022/06/29 02:59:23;;;;;;;6.07;2.78;;;17.70;55.10;;;;;;5074622;28;20019;-84
2022/06/29 03:01:49;;;;;;;5.33;2.80;;;17.70;55.50;;;;;;5074846;28;20012;-82
2022/06/29 03:04:15;;;;;;;12.82;5.28;;;17.80;55.40;;;;;;5052998;28;20530;-81
2022/06/29 03:06:41;;;;;;;9.10;4.22;;;17.90;55.00;;;;;;5056608;28;20442;-81
2022/06/29 03:09:08;;;;;;;5.93;2.85;;;18.00;54.60;;;;;;5056890;28;20044;-81
2022/06/29 03:11:33;;;;;;;4.57;2.80;;;18.10;54.80;;;;;;5039779;28;20068;-81
2022/06/29 03:13:59;;;;;;;7.82;3.33;;;18.30;54.20;;;;;;5040104;28;20386;-81
2022/06/29 03:16:26;;;;;;;8.15;3.00;;;18.60;54.00;;;;;;5054519;28;20025;-81
2022/06/29 03:18:51;;;;;;;4.18;2.80;;;18.70;54.00;;;;;;5053716;28;20032;-81
2022/06/29 03:21:18;;;;;;;8.00;5.10;;;18.70;53.40;;;;;;5037146;28;20017;-81
2022/06/29 03:23:44;;;;;;;10.10;5.72;;;18.70;53.80;;;;;;5054911;28;20021;-80
2022/06/29 03:26:12;;;;;;;7.28;2.88;;;18.60;53.90;;;;;;5036583;28;20119;-81
2022/06/29 03:28:38;;;;;;;6.32;3.75;;;18.60;53.70;;;;;;5054566;28;20047;-81
2022/06/29 03:31:04;;;;;;;10.80;7.18;;;18.60;53.70;;;;;;5054436;28;20029;-81
2022/06/29 03:33:31;;;;;;;9.93;2.85;;;18.60;53.90;;;;;;5054231;28;20533;-82
2022/06/29 03:35:57;;;;;;;4.57;3.27;;;18.50;53.60;;;;;;5036093;28;20409;-82
2022/06/29 03:38:23;;;;;;;5.72;2.97;;;18.50;53.90;;;;;;5053823;28;20021;-81
2022/06/29 03:40:49;;;;;;;6.22;3.20;;;18.40;53.30;;;;;;5036058;28;20398;-80
2022/06/29 03:43:15;;;;;;;6.85;3.75;;;18.40;54.30;;;;;;5053738;28;20017;-81
2022/06/29 03:45:41;;;;;;;4.88;3.67;;;18.50;54.10;;;;;;5053792;28;20039;-81
2022/06/29 03:48:07;;;;;;;10.33;4.90;;;18.60;53.80;;;;;;5055249;28;20079;-81
2022/06/29 03:50:33;;;;;;;7.95;3.83;;;18.70;54.20;;;;;;5054129;28;20017;-82
2022/06/29 03:52:59;;;;;;;9.65;5.53;;;18.80;54.10;;;;;;5053834;28;20024;-80
2022/06/29 03:55:25;;;;;;;10.77;3.80;;;18.80;54.10;;;;;;5057367;28;20016;-82
2022/06/29 03:57:51;;;;;;;9.18;4.68;;;18.80;54.10;;;;;;5054793;28;20020;-82
2022/06/29 04:00:17;;;;;;;6.22;3.35;;;18.90;53.80;;;;;;5053864;28;20064;-82
2022/06/29 04:02:43;;;;;;;6.95;3.90;;;19.00;53.70;;;;;;5053226;28;20020;-82
2022/06/29 04:05:09;;;;;;;9.40;3.60;;;19.10;53.50;;;;;;5052325;28;20028;-82
2022/06/29 04:07:35;;;;;;;11.55;5.45;;;19.20;53.00;;;;;;5035382;28;20175;-83
2022/06/29 04:10:01;;;;;;;7.30;3.80;;;19.20;53.10;;;;;;5035264;28;20107;-83
2022/06/29 04:12:29;;;;;;;12.38;4.85;;;19.10;52.90;;;;;;5053499;28;20032;-82
2022/06/29 04:14:55;;;;;;;5.28;3.38;;;19.20;53.00;;;;;;5053107;28;20032;-82
2022/06/29 04:17:21;;;;;;;17.90;8.95;;;19.30;52.90;;;;;;5052998;28;20021;-83
2022/06/29 04:19:46;;;;;;;7.50;4.40;;;19.30;52.70;;;;;;5053059;28;20023;-81
2022/06/29 04:22:12;;;;;;;7.35;4.03;;;19.40;52.90;;;;;;5053183;28;20497;-80
2022/06/29 04:24:38;;;;;;;4.85;2.92;;;19.40;52.40;;;;;;5039258;28;20025;-79
2022/06/29 04:27:04;;;;;;;9.07;3.45;;;19.50;51.90;;;;;;5063495;28;20039;-80
2022/06/29 04:29:29;;;;;;;6.75;3.10;;;19.60;51.70;;;;;;5056967;28;20558;-81
2022/06/29 04:31:55;;;;;;;9.10;5.25;;;19.60;51.50;;;;;;5035120;28;20411;-80
2022/06/29 04:34:21;;;;;;;10.70;3.30;;;19.50;52.00;;;;;;5053055;28;20021;-79
2022/06/29 04:36:47;;;;;;;6.18;3.67;;;19.60;51.70;;;;;;5052962;28;20033;-81
2022/06/29 04:39:13;;;;;;;9.35;3.60;;;19.70;51.20;;;;;;5052407;28;20374;-80
2022/06/29 04:41:39;;;;;;;5.18;3.08;;;19.80;51.60;;;;;;5052563;28;20490;-81
2022/06/29 04:44:04;;;;;;;6.90;2.85;;;19.90;51.20;;;;;;5049631;28;20498;-81
2022/06/29 04:46:31;;;;;;;10.40;3.05;;;20.00;49.80;;;;;;5052434;28;20478;-82
2022/06/29 04:48:59;;;;;;;5.97;2.75;;;20.00;49.30;;;;;;5052050;28;20021;-84
2022/06/29 04:51:26;;;;;;;7.32;3.55;;;19.90;49.70;;;;;;5052910;28;20096;-85
2022/06/29 04:53:56;;;;;;;5.53;3.00;;;20.00;49.60;;;;;;5053644;28;20025;-86
2022/06/29 04:56:24;;;;;;;7.82;2.90;;;20.10;49.70;;;;;;5054066;28;20017;-83
2022/06/29 04:58:51;;;;;;;7.18;3.10;;;20.20;49.10;;;;;;5059119;28;20017;-84
2022/06/29 05:01:18;;;;;;;4.60;2.40;;;20.40;48.90;;;;;;5069822;28;20056;-85
2022/06/29 05:03:44;;;;;;;5.53;2.78;;;20.50;48.50;;;;;;5072665;28;20052;-84
2022/06/29 05:06:10;;;;;;;7.18;2.97;;;20.50;48.70;;;;;;5051502;28;20045;-85
2022/06/29 05:08:36;;;;;;;6.57;3.05;;;20.60;48.70;;;;;;5035093;28;20021;-84
2022/06/29 05:11:01;;;;;;;7.88;5.40;;;20.40;48.40;;;;;;5035249;28;20056;-85
2022/06/29 05:13:27;;;;;;;5.43;2.60;;;20.30;49.20;;;;;;5053621;28;20466;-84
2022/06/29 05:15:53;;;;;;;5.75;2.22;;;20.50;48.40;;;;;;5057251;28;20032;-83
2022/06/29 05:18:19;;;;;;;5.63;3.17;;;21.10;48.30;;;;;;5045870;28;20380;-83
2022/06/29 05:20:45;;;;;;;2.63;1.80;;;21.90;45.60;;;;;;5052351;28;20037;-85
2022/06/29 05:23:11;;;;;;;4.57;2.60;;;22.80;43.90;;;;;;5052192;28;20024;-84
2022/06/29 05:25:39;;;;;;;5.57;2.15;;;24.30;41.40;;;;;;5052305;28;20031;-82
2022/06/29 05:28:05;;;;;;;6.70;2.17;;;25.80;39.90;;;;;;5034071;28;20033;-85
2022/06/29 05:30:31;;;;;;;5.20;1.92;;;26.50;37.60;;;;;;5052570;28;20020;-88
2022/06/29 05:32:57;;;;;;;3.67;2.10;;;26.40;36.30;;;;;;5052832;28;20032;-86
2022/06/29 05:35:23;;;;;;;4.57;2.38;;;26.90;36.50;;;;;;5052591;28;20493;-84
2022/06/29 05:37:49;;;;;;;4.10;2.00;;;27.60;35.80;;;;;;5054292;28;20032;-86
2022/06/29 05:40:15;;;;;;;5.15;2.28;;;28.00;34.70;;;;;;5053770;28;20025;-87
2022/06/29 05:42:41;;;;;;;4.43;3.38;;;29.00;34.30;;;;;;5046151;28;20017;-84
2022/06/29 05:45:07;;;;;;;12.68;3.55;;;30.00;34.00;;;;;;5053275;28;20025;-84
2022/06/29 05:47:33;;;;;;;7.35;2.72;;;30.00;33.10;;;;;;5053307;28;20097;-85
2022/06/29 05:50:00;;;;;;;14.15;4.80;;;30.00;33.50;;;;;;5052901;28;20064;-84
2022/06/29 05:52:27;;;;;;;5.32;3.78;;;30.60;32.80;;;;;;5052327;28;20079;-84
2022/06/29 05:54:53;;;;;;;;;;;31.10;32.50;;;;;;5034218;28;20025;-84
2022/06/29 05:57:19;;;;;;;6.30;2.55;;;31.50;33.00;;;;;;5052109;28;19912;-85
2022/06/29 05:59:48;;;;;;;9.82;2.63;;;32.00;31.70;;;;;;5053494;28;20544;-85
2022/06/29 06:02:14;;;;;;;3.53;2.03;;;32.70;31.50;;;;;;5052757;28;20055;-84
2022/06/29 06:04:40;;;;;;;9.23;3.27;;;32.60;30.00;;;;;;5052951;28;20502;-84
2022/06/29 06:07:07;;;;;;;7.70;3.00;;;32.50;30.70;;;;;;5034598;28;20458;-85
2022/06/29 06:09:32;;;;;;;4.00;2.55;;;32.90;30.00;;;;;;5052286;28;20037;-85
2022/06/29 06:11:59;;;;;;;3.87;2.07;;;32.80;30.20;;;;;;5054026;28;20443;-87
2022/06/29 06:14:25;;;;;;;6.57;3.83;;;32.80;30.00;;;;;;5053992;28;20021;-89
2022/06/29 06:16:50;;;;;;;6.27;3.03;;;33.80;30.10;;;;;;5033026;28;20024;-84
2022/06/29 06:19:17;;;;;;;8.73;3.00;;;34.90;29.70;;;;;;5041968;28;20681;-85
2022/06/29 06:21:43;;;;;;;29.88;15.77;;;36.00;28.90;;;;;;5037286;28;20120;-83
2022/06/29 06:24:09;;;;;;;5.33;2.67;;;35.30;28.70;;;;;;5051553;28;20146;-84
2022/06/29 06:26:34;;;;;;;8.25;2.60;;;34.60;28.70;;;;;;5056309;28;20044;-84
2022/06/29 06:29:01;;;;;;;7.33;2.50;;;35.10;28.90;;;;;;5036544;28;20021;-83
2022/06/29 06:31:27;;;;;;;;;;;36.20;28.50;;;;;;5038750;28;20036;-85
2022/06/29 06:33:53;;;;;;;4.60;2.65;;;37.40;28.80;;;;;;5051559;28;19971;-85
2022/06/29 06:36:19;;;;;;;7.57;2.45;;;37.50;27.40;;;;;;5054133;28;20029;-89
2022/06/29 06:38:45;;;;;;;6.38;2.63;;;37.60;27.40;;;;;;5053463;28;20038;-86
2022/06/29 06:41:23;;;;;;;9.05;4.53;;;38.20;26.90;;;;;;5043433;28;20021;-85
2022/06/29 06:43:53;;;;;;;8.20;4.10;;;37.80;26.60;;;;;;5056788;28;20044;-88
2022/06/29 06:46:21;;;;;;;8.13;2.10;;;37.20;26.70;;;;;;5058995;28;20036;-88
2022/06/29 06:48:49;;;;;;;4.03;2.08;;;37.60;26.30;;;;;;5042374;28;20088;-87
2022/06/29 06:51:15;;;;;;;6.50;2.67;;;38.00;26.50;;;;;;5041844;28;20095;-87
2022/06/29 06:53:41;;;;;;;4.13;2.17;;;38.20;26.40;;;;;;5042390;28;20021;-88
2022/06/29 06:56:08;;;;;;;2.53;1.80;;;38.60;26.00;;;;;;5060757;28;20037;-87
2022/06/29 06:58:35;;;;;;;5.57;2.10;;;39.30;25.60;;;;;;5059548;28;20024;-87
2022/06/29 07:01:04;;;;;;;7.78;2.35;;;39.30;25.30;;;;;;5041741;28;20542;-86
2022/06/29 07:03:31;;;;;;;6.70;3.03;;;39.80;25.60;;;;;;5029670;28;20498;-88
2022/06/29 07:06:00;;;;;;;4.15;2.65;;;40.20;25.70;;;;;;5060328;28;20033;-86
2022/06/29 07:08:27;;;;;;;4.07;2.00;;;40.60;25.20;;;;;;5068833;28;20032;-84
2022/06/29 07:10:53;;;;;;;9.77;3.75;;;39.40;25.50;;;;;;5080757;28;20005;-86
2022/06/29 07:13:19;;;;;;;4.55;2.75;;;39.60;25.90;;;;;;5061514;28;20093;-88
2022/06/29 07:15:45;;;;;;;5.18;1.65;;;39.50;26.00;;;;;;5048341;28;20032;-88
2022/06/29 07:18:11;;;;;;;6.18;2.40;;;40.10;26.00;;;;;;5064730;28;20108;-88
2022/06/29 07:20:36;;;;;;;8.30;3.40;;;41.30;26.00;;;;;;5053869;28;20013;-88
2022/06/29 07:23:04;;;;;;;4.40;2.33;;;40.80;25.20;;;;;;5076519;28;20033;-87
2022/06/29 07:25:29;;;;;;;7.80;2.63;;;40.20;25.70;;;;;;5074341;28;20024;-89
2022/06/29 07:27:56;;;;;;;8.88;3.92;;;40.20;25.50;;;;;;5078219;28;20063;-87
2022/06/29 07:30:21;;;;;;;;;;;40.00;25.50;;;;;;5062782;28;20044;-87
2022/06/29 07:32:47;;;;;;;6.47;1.67;;;39.90;26.00;;;;;;5079977;28;19905;-87
2022/06/29 07:35:16;;;;;;;4.88;1.80;;;39.90;25.70;;;;;;5080843;28;20028;-90
2022/06/29 07:37:45;;;;;;;3.95;2.00;;;40.90;25.10;;;;;;5082068;28;20476;-86
2022/06/29 07:40:11;;;;;;;6.45;2.35;;;40.70;25.00;;;;;;5083419;28;20025;-89
2022/06/29 07:42:38;;;;;;;4.50;1.60;;;39.40;25.50;;;;;;5069407;28;20036;-87
2022/06/29 07:45:06;;;;;;;4.35;1.70;;;38.70;25.40;;;;;;5081969;28;20463;-86
2022/06/29 07:47:32;;;;;;;4.35;2.15;;;38.10;25.80;;;;;;5082106;28;20028;-86
2022/06/29 07:49:58;;;;;;;6.72;2.00;;;38.00;26.10;;;;;;5036238;28;20434;-88
2022/06/29 07:52:24;;;;;;;3.63;1.88;;;38.90;25.90;;;;;;5038029;28;20048;-90
2022/06/29 07:54:51;;;;;;;2.75;1.65;;;39.20;25.30;;;;;;5042275;28;20048;-87
2022/06/29 07:57:17;;;;;;;3.70;1.85;;;39.00;25.40;;;;;;5042952;28;20037;-90
2022/06/29 07:59:44;;;;;;;6.18;2.05;;;39.30;25.30;;;;;;5043979;28;20033;-88
2022/06/29 08:02:10;;;;;;;3.90;1.77;;;40.10;24.90;;;;;;5022756;28;20040;-91
2022/06/29 08:04:36;;;;;;;3.08;2.05;;;40.60;24.50;;;;;;5031263;28;20042;-89
2022/06/29 08:07:02;;;;;;;;;;;40.60;24.70;;;;;;5038227;28;20072;-89
2022/06/29 08:09:28;;;;;;;7.25;2.17;;;39.70;25.20;;;;;;5038974;28;19909;-88
2022/06/29 08:11:57;;;;;;;5.10;2.30;;;39.10;25.60;;;;;;5044781;28;20025;-88
2022/06/29 08:14:23;;;;;;;3.33;1.75;;;38.60;25.50;;;;;;5022253;28;20029;-88
2022/06/29 08:16:49;;;;;;;5.05;1.75;;;38.20;25.80;;;;;;5037436;28;20029;-88
2022/06/29 08:19:14;;;;;;;7.07;1.85;;;38.30;26.20;;;;;;5038529;28;20033;-89
2022/06/29 08:21:40;;;;;;;4.50;2.20;;;39.50;25.60;;;;;;5052856;28;20037;-87
2022/06/29 08:24:08;;;;;;;5.15;2.63;;;40.50;25.10;;;;;;5079177;28;20107;-88
2022/06/29 08:26:34;;;;;;;5.00;1.77;;;40.20;25.20;;;;;;5078306;28;20056;-85
2022/06/29 08:28:59;;;;;;;4.03;2.55;;;39.80;25.10;;;;;;5080613;28;20012;-87
2022/06/29 08:31:25;;;;;;;8.25;4.55;;;38.70;25.40;;;;;;5078533;28;20043;-89
2022/06/29 08:33:51;;;;;;;4.20;2.10;;;37.90;26.00;;;;;;5079191;28;20035;-87
2022/06/29 08:36:17;;;;;;;5.75;2.15;;;38.30;26.10;;;;;;5078191;28;20029;-89
2022/06/29 08:38:43;;;;;;;2.28;1.63;;;39.10;25.90;;;;;;5082780;28;20021;-88
2022/06/29 08:41:10;;;;;;;4.40;2.45;;;40.00;25.40;;;;;;5077578;28;20034;-89
2022/06/29 08:43:36;;;;;;;3.50;2.28;;;40.30;25.40;;;;;;5048287;28;20035;-89
2022/06/29 08:46:03;;;;;;;5.43;2.45;;;41.90;25.00;;;;;;5061958;28;20090;-87
2022/06/29 08:48:30;;;;;;;4.63;2.65;;;42.40;25.00;;;;;;5079607;28;20032;-87
2022/06/29 08:50:56;;;;;;;4.53;3.08;;;42.20;24.60;;;;;;5077015;28;20073;-87
2022/06/29 08:53:23;;;;;;;3.83;2.08;;;40.50;24.70;;;;;;5078587;28;20066;-88
2022/06/29 08:55:55;;;;;;;5.97;3.25;;;39.60;25.10;;;;;;5079012;28;20478;-90
2022/06/29 08:58:23;;;;;;;5.45;2.10;;;;;;;;;;5059887;28;20480;-91
2022/06/29 09:00:50;;;;;;;3.50;2.35;;;;;;;;;;5076072;28;20095;-88
2022/06/29 09:03:18;;;;;;;3.55;2.00;;;42.00;24.00;;;;;;5079348;28;20043;-86
2022/06/29 09:05:48;;;;;;;8.85;3.50;;;40.70;24.50;;;;;;5082311;28;20033;-87
2022/06/29 09:08:16;;;;;;;6.00;1.92;;;39.80;24.50;;;;;;5062227;28;20024;-90
2022/06/29 09:10:42;;;;;;;5.30;3.25;;;38.60;25.00;;;;;;5062242;28;20546;-90
2022/06/29 09:13:08;;;;;;;7.00;4.18;;;38.10;25.80;;;;;;5080992;28;20044;-87
2022/06/29 09:15:38;;;;;;;3.67;2.58;;;38.80;25.80;;;;;;5062051;28;20028;-87
2022/06/29 09:18:26;;;;;;;4.22;2.15;;;38.30;25.40;;;;;;5054385;28;20470;-88
2022/06/29 09:20:55;;;;;;;3.65;2.45;;;38.00;25.40;;;;;;5078159;28;20024;-88
2022/06/29 09:23:25;;;;;;;4.45;2.08;;;39.20;25.50;;;;;;5077848;28;20039;-90
2022/06/29 09:25:52;;;;;;;3.85;2.60;;;40.60;24.90;;;;;;5060535;28;20016;-88
2022/06/29 09:28:20;;;;;;;4.43;2.58;;;40.80;24.30;;;;;;5078380;28;20021;-91
2022/06/29 09:30:46;;;;;;;5.60;2.55;;;40.80;24.80;;;;;;5063194;28;20028;-90
2022/06/29 09:33:12;;;;;;;;;;;40.80;24.50;;;;;;5065727;28;20021;-90
2022/06/29 09:35:40;;;;;;;5.15;2.55;;;40.70;24.60;;;;;;5071286;28;19905;-88
2022/06/29 09:38:21;;;;;;;11.20;3.00;;;40.50;24.50;;;;;;5083651;28;20016;-88
2022/06/29 09:41:04;;;;;;;5.10;2.60;;;40.70;24.60;;;;;;5065065;28;20017;-87
2022/06/29 09:43:32;;;;;;;4.80;1.88;;;40.20;24.00;;;;;;5094010;28;20013;-87
2022/06/29 09:46:00;;;;;;;6.32;2.55;;;39.30;24.30;;;;;;5095397;28;20032;-91
2022/06/29 09:48:29;;;;;;;6.45;2.38;;;39.40;24.80;;;;;;5091791;28;20032;-89
2022/06/29 09:50:56;;;;;;;8.50;2.60;;;40.20;24.60;;;;;;5069054;28;20025;-88
2022/06/29 09:53:35;;;;;;;4.07;2.00;;;41.00;23.90;;;;;;5077846;28;20028;-88
2022/06/29 09:56:04;;;;;;;4.63;1.95;;;41.30;24.10;;;;;;5088879;28;20386;-91
2022/06/29 09:58:42;;;;;;;5.80;2.28;;;41.90;23.80;;;;;;5085372;28;20127;-87
2022/06/29 10:03:55;;;;;;;6.68;2.90;;;39.30;24.20;;;;;;5082162;28;20182;-89
2022/06/29 10:06:23;;;;;;;6.93;3.60;;;38.00;24.60;;;;;;5083047;28;20573;-91
2022/06/29 10:08:49;;;;;;;3.50;2.53;;;37.40;24.90;;;;;;5081950;28;20085;-90
2022/06/29 10:14:43;;;;;;;5.32;2.38;;;39.20;24.60;;;;;;5081876;28;20758;-90
2022/06/29 10:17:23;;;;;;;6.93;2.20;;;40.50;24.00;;;;;;5081602;28;20028;-88
2022/06/29 10:20:20;;;;;;;3.33;2.90;;;40.80;23.90;;;;;;5083135;28;20027;-88
2022/06/29 10:22:46;;;;;;;4.68;3.17;;;41.30;23.80;;;;;;5080280;28;20029;-89
2022/06/29 10:25:13;;;;;;;4.25;1.98;;;41.10;23.70;;;;;;5063127;28;20071;-87
2022/06/29 10:28:16;;;;;;;4.28;2.15;;;40.10;23.80;;;;;;5063679;28;20100;-89
2022/06/29 10:30:43;;;;;;;7.72;2.03;;;38.90;23.90;;;;;;5063937;28;20111;-87
2022/06/29 10:33:31;;;;;;;4.63;1.80;;;38.00;24.20;;;;;;5082864;28;20111;-89
2022/06/29 10:36:02;;;;;;;4.50;2.40;;;35.70;24.90;;;;;;5072746;28;20013;-87
2022/06/29 10:38:29;;;;;;;8.15;2.53;;;33.70;26.10;;;;;;5080699;28;20107;-87
2022/06/29 10:43:07;;;;;;;2.42;2.13;;;32.00;26.70;;;;;;5080391;28;20513;-87
2022/06/29 10:43:59;;;;;;;7.22;3.35;;;30.00;27.60;;;;;;5080925;28;20032;-89
2022/06/29 10:46:24;;;;;;;6.13;2.40;;;28.50;29.00;;;;;;5080022;28;20056;-87
2022/06/29 10:49:23;;;;;;;4.15;1.90;;;27.50;29.60;;;;;;5081009;28;20078;-89
2022/06/29 10:51:52;;;;;;;3.08;2.25;;;26.60;30.00;;;;;;5028697;28;20131;-88
2022/06/29 10:54:22;;;;;;;5.55;2.95;;;26.00;30.80;;;;;;5078184;28;20032;-90
2022/06/29 10:56:47;;;;;;;5.88;2.47;;;25.80;31.70;;;;;;5080443;28;20021;-90
2022/06/29 10:59:41;;;;;;;8.48;2.25;;;25.70;31.40;;;;;;5079504;28;20098;-90
2022/06/29 11:02:16;;;;;;;3.63;2.20;;;25.60;31.60;;;;;;5042506;28;20040;-87
2022/06/29 11:04:43;;;;;;;3.65;2.10;;;25.50;32.30;;;;;;5064905;28;20121;-88
2022/06/29 11:12:51;;;;;;;4.78;2.20;;;25.10;32.70;;;;;;5081959;28;20039;-88
2022/06/29 11:15:42;;;;;;;4.25;2.42;;;25.00;32.90;;;;;;5081717;28;20031;-88
2022/06/29 11:18:17;;;;;;;3.30;2.42;;;24.90;33.10;;;;;;5083048;28;20177;-87
2022/06/29 11:20:45;;;;;;;8.00;3.38;;;24.90;33.40;;;;;;5055082;28;20059;-88
2022/06/29 11:23:17;;;;;;;2.65;2.05;;;24.80;33.20;;;;;;5085958;28;20028;-87
2022/06/29 11:25:47;;;;;;;5.60;2.75;;;24.80;32.90;;;;;;5089991;28;20058;-87
2022/06/29 11:28:20;;;;;;;4.82;2.40;;;24.70;33.50;;;;;;5087642;28;20020;-89
2022/06/29 11:31:09;;;;;;;4.45;2.40;;;24.80;33.70;;;;;;5082138;28;20025;-89
2022/06/29 11:33:40;;;;;;;5.93;2.25;;;24.70;33.50;;;;;;5081990;28;20028;-88
2022/06/29 11:36:30;;;;;;;5.70;2.08;;;24.70;33.20;;;;;;5080399;28;20020;-87
2022/06/29 11:39:06;;;;;;;4.15;2.30;;;24.60;32.70;;;;;;5050330;28;20451;-88
2022/06/29 11:44:27;;;;;;;8.70;2.45;;;24.40;32.80;;;;;;5081411;28;20512;-88
2022/06/29 11:46:54;;;;;;;27.85;9.40;;;24.30;32.90;;;;;;5080564;28;20048;-87
2022/06/29 11:49:40;;;;;;;7.53;4.32;;;24.20;33.30;;;;;;5080477;28;20035;-89
2022/06/29 11:52:13;;;;;;;4.30;1.75;;;24.30;33.60;;;;;;5061672;28;20073;-86
2022/06/29 11:54:56;;;;;;;4.07;1.85;;;24.10;34.00;;;;;;5079161;28;20085;-87
2022/06/29 11:57:22;;;;;;;6.55;2.30;;;23.90;34.40;;;;;;5060081;28;20029;-87
2022/06/29 11:59:48;;;;;;;3.67;2.42;;;23.80;34.40;;;;;;5080439;28;20021;-87
2022/06/29 12:02:16;;;;;;;4.15;2.08;;;23.90;35.20;;;;;;5077816;28;20032;-88
2022/06/29 12:04:44;;;;;;;4.85;2.75;;;23.90;34.40;;;;;;5078544;28;20044;-87
2022/06/29 12:07:16;;;;;;;8.40;3.33;;;24.00;33.80;;;;;;5093586;28;20032;-87
2022/06/29 12:09:45;;;;;;;5.95;2.30;;;24.00;34.10;;;;;;5096725;28;20076;-86
2022/06/29 12:12:12;;;;;;;6.35;2.45;;;24.10;33.50;;;;;;5091816;28;20033;-90
2022/06/29 12:14:39;;;;;;;3.65;2.20;;;24.10;33.60;;;;;;5078842;28;20023;-86
2022/06/29 12:17:07;;;;;;;4.82;2.08;;;24.20;33.20;;;;;;5059149;28;20031;-90
2022/06/29 12:19:33;;;;;;;6.47;2.65;;;24.10;33.30;;;;;;5057240;28;20442;-89
2022/06/29 12:21:59;;;;;;;6.47;2.35;;;24.20;33.30;;;;;;5076499;28;20028;-86
2022/06/29 12:24:26;;;;;;;4.07;2.28;;;24.30;32.70;;;;;;5058795;28;20028;-89
2022/06/29 12:26:52;;;;;;;5.22;2.28;;;24.20;32.90;;;;;;5076380;28;20031;-89
2022/06/29 12:29:18;;;;;;;9.03;2.87;;;24.10;33.50;;;;;;5074612;28;20100;-90
2022/06/29 12:31:45;;;;;;;6.10;2.30;;;24.00;33.70;;;;;;5076120;28;20024;-88
2022/06/29 12:34:12;;;;;;;9.07;2.43;;;24.00;33.80;;;;;;5078539;28;20013;-88
2022/06/29 12:36:39;;;;;;;4.63;2.00;;;24.10;33.70;;;;;;5062193;28;20101;-89
2022/06/29 12:39:06;;;;;;;6.00;2.42;;;24.10;33.00;;;;;;5093744;28;20058;-89
2022/06/29 12:41:32;;;;;;;3.40;2.10;;;24.10;33.00;;;;;;5094348;28;20024;-86
2022/06/29 12:43:59;;;;;;;3.73;2.20;;;24.10;32.60;;;;;;5066078;28;20033;-86
2022/06/29 12:46:27;;;;;;;5.85;2.72;;;24.10;32.80;;;;;;5063406;28;20037;-88
2022/06/29 12:48:54;;;;;;;5.10;2.35;;;24.20;32.10;;;;;;5068461;28;20024;-88
2022/06/29 12:51:20;;;;;;;3.63;2.67;;;24.20;31.70;;;;;;5069904;28;20032;-87
2022/06/29 12:53:47;;;;;;;2.80;2.35;;;24.20;31.50;;;;;;5086266;28;20048;-91
2022/06/29 12:56:14;;;;;;;4.78;2.22;;;24.20;31.70;;;;;;5064002;28;20049;-88
2022/06/29 12:58:39;;;;;;;6.70;3.10;;;24.10;31.90;;;;;;5084294;28;20032;-86
2022/06/29 13:01:06;;;;;;;3.45;2.55;;;24.00;32.60;;;;;;5079035;28;20017;-87
2022/06/29 13:03:32;;;;;;;6.13;2.60;;;24.00;32.70;;;;;;5058945;28;20418;-88
2022/06/29 13:05:59;;;;;;;6.40;2.30;;;24.00;32.60;;;;;;5057575;28;20032;-88
2022/06/29 13:08:25;;;;;;;;;;;23.90;32.80;;;;;;5058718;28;20494;-86